Time;durP1;ratioP1;P1;durP2;ratioP2;P2;SDS_P1;SDS_P2;PMS_P1;PMS_P2;Temp;Humidity;BMP_temperature;BMP_pressure;BME280_temperature;BME280_humidity;BME280_pressure;Samples;Min_cycle;Max_cycle;Signal;HPM_P1;HPM_P2
2022/05/08 00:04:04;;;;;;;9.82;6.70;;;;;;;14.43;58.73;100587.66;10264471;28;20230;-60
2022/05/08 00:09:06;;;;;;;10.60;6.85;;;;;;;14.32;59.18;100577.81;10265300;28;20347;-61
2022/05/08 00:14:08;;;;;;;8.32;6.68;;;;;;;14.24;59.17;100569.56;10263818;28;20046;-60
2022/05/08 00:19:10;;;;;;;8.98;6.82;;;;;;;14.20;59.01;100565.47;10264358;28;20078;-62
2022/05/08 00:24:12;;;;;;;10.43;6.30;;;;;;;13.95;59.33;100564.47;10264689;28;20474;-59
2022/05/08 00:29:15;;;;;;;7.72;6.65;;;;;;;13.88;59.81;100568.44;10265063;28;20442;-61
2022/05/08 00:34:16;;;;;;;8.43;6.40;;;;;;;13.89;59.66;100564.88;10264308;28;20170;-60
2022/05/08 00:39:19;;;;;;;9.68;7.75;;;;;;;13.84;60.09;100562.53;10264263;28;20139;-62
2022/05/08 00:44:20;;;;;;;10.77;7.93;;;;;;;13.55;60.45;100566.16;10277507;28;20141;-61
2022/05/08 00:49:22;;;;;;;13.65;7.20;;;;;;;13.32;61.18;100564.91;10276742;28;20145;-62
2022/05/08 00:54:24;;;;;;;8.40;6.80;;;;;;;13.38;60.77;100556.63;10265528;28;20061;-62
2022/05/08 00:59:25;;;;;;;12.43;8.25;;;;;;;13.43;60.60;100559.84;10263518;28;20503;-62
2022/05/08 01:04:27;;;;;;;10.77;8.48;;;;;;;13.18;60.80;100564.03;10264062;28;20051;-61
2022/05/08 01:09:29;;;;;;;11.25;8.32;;;;;;;13.02;61.43;100555.41;10264455;28;20627;-62
2022/05/08 01:14:31;;;;;;;9.88;7.22;;;;;;;13.03;61.37;100564.97;10264475;28;20146;-62
2022/05/08 01:19:32;;;;;;;9.93;7.90;;;;;;;13.04;61.34;100546.50;10263946;28;20521;-62
2022/05/08 01:24:34;;;;;;;9.38;7.97;;;;;;;12.96;61.33;100548.75;10263466;28;20098;-62
2022/05/08 01:29:36;;;;;;;11.70;7.80;;;;;;;12.89;61.32;100553.50;10263493;28;20142;-62
2022/05/08 01:34:37;;;;;;;10.18;8.88;;;;;;;12.60;61.76;100551.72;10263994;28;20082;-62
2022/05/08 01:39:39;;;;;;;12.25;10.48;;;;;;;12.49;61.76;100562.03;10262573;28;20061;-62
2022/05/08 01:44:42;;;;;;;11.90;8.50;;;;;;;12.39;62.06;100557.38;10262446;28;20043;-62
2022/05/08 01:49:43;;;;;;;10.65;8.30;;;;;;;12.46;61.92;100572.69;10262453;28;20061;-62
2022/05/08 01:54:45;;;;;;;10.25;8.00;;;;;;;12.49;62.15;100571.66;10262906;28;20158;-62
2022/05/08 01:59:47;;;;;;;11.20;8.02;;;;;;;12.51;61.78;100575.91;10258697;28;20454;-62
2022/05/08 02:04:49;;;;;;;9.85;8.57;;;;;;;12.35;61.87;100579.47;10269077;28;20121;-62
2022/05/08 02:09:51;;;;;;;10.93;9.32;;;;;;;12.21;62.01;100582.84;10268993;28;20333;-62
2022/05/08 02:14:53;;;;;;;12.27;9.85;;;;;;;12.17;61.90;100583.97;10270529;28;20141;-62
2022/05/08 02:19:54;;;;;;;14.35;9.30;;;;;;;12.19;62.10;100592.59;10270554;28;20126;-62
2022/05/08 02:24:56;;;;;;;11.07;8.65;;;;;;;11.92;62.31;100607.22;10270567;28;20050;-62
2022/05/08 02:29:58;;;;;;;13.85;10.32;;;;;;;11.85;62.43;100604.06;10270629;28;20050;-62
2022/05/08 02:35:01;;;;;;;9.88;8.65;;;;;;;11.90;62.44;100603.81;10270049;28;20859;-62
2022/05/08 02:40:06;;;;;;;12.45;8.40;;;;;;;12.05;62.46;100602.97;10269157;28;20161;-62
2022/05/08 02:45:08;;;;;;;11.73;9.00;;;;;;;12.12;62.23;100612.19;10269094;28;20093;-62
2022/05/08 02:50:11;;;;;;;13.35;9.57;;;;;;;12.03;62.66;100607.44;10267521;28;20086;-62
2022/05/08 03:00:33;;;;;;;12.10;8.63;;;;;;;12.15;62.02;100614.63;10275177;28;20070;-62
2022/05/08 03:05:35;;;;;;;14.07;11.68;;;;;;;11.95;62.19;100620.13;10271917;28;20145;-63
2022/05/08 03:15:58;;;;;;;14.00;10.55;;;;;;;11.90;62.50;100609.91;10269623;28;20407;-62
2022/05/08 03:21:00;;;;;;;12.15;9.65;;;;;;;11.89;62.79;100615.22;10268877;28;20043;-62
2022/05/08 03:26:06;;;;;;;12.20;10.10;;;;;;;11.94;62.36;100616.69;10268514;28;20050;-62
2022/05/08 03:31:09;;;;;;;13.25;11.43;;;;;;;11.74;62.49;100618.69;10269480;28;20133;-62
2022/05/08 03:36:10;;;;;;;13.32;9.70;;;;;;;11.55;62.95;100617.97;10269843;28;20063;-62
2022/05/08 03:41:15;;;;;;;14.27;11.88;;;;;;;11.40;62.95;100627.47;10269214;28;20447;-62
2022/05/08 03:46:17;;;;;;;11.95;10.75;;;;;;;11.27;62.89;100629.88;10278679;28;20150;-62
2022/05/08 03:51:19;;;;;;;14.10;10.68;;;;;;;11.24;63.05;100630.03;10295088;28;20047;-65
2022/05/08 03:56:21;;;;;;;12.02;10.32;;;;;;;11.35;63.23;100628.63;10267257;28;20133;-62
2022/05/08 04:01:23;;;;;;;15.57;12.48;;;;;;;11.30;62.84;100632.34;10268111;28;20165;-63
2022/05/08 04:06:25;;;;;;;15.68;11.43;;;;;;;11.13;63.41;100631.53;10270145;28;20490;-63
2022/05/08 04:11:29;;;;;;;11.05;9.95;;;;;;;11.21;63.16;100634.59;10266423;28;20347;-62
2022/05/08 04:16:32;;;;;;;17.88;15.90;;;;;;;11.18;62.89;100639.97;10267030;28;20074;-62
2022/05/08 04:21:33;;;;;;;18.33;14.65;;;;;;;11.10;63.30;100642.97;10267255;28;20059;-62
2022/05/08 04:26:35;;;;;;;15.98;12.38;;;;;;;11.34;62.92;100645.28;10266301;28;20051;-62
2022/05/08 04:31:37;;;;;;;17.23;12.23;;;;;;;11.62;62.21;100650.78;10267094;28;20553;-62
2022/05/08 04:36:39;;;;;;;14.85;13.35;;;;;;;12.19;60.72;100650.28;10266345;28;20558;-62
2022/05/08 04:41:41;;;;;;;11.27;9.65;;;;;;;12.95;59.17;100666.03;10266677;28;20424;-62
2022/05/08 04:46:42;;;;;;;11.48;10.23;;;;;;;13.18;58.51;100666.47;10263642;28;20579;-62
2022/05/08 04:51:44;;;;;;;9.80;8.48;;;;;;;13.70;57.13;100665.91;10266034;28;20129;-62
2022/05/08 04:56:46;;;;;;;11.68;8.90;;;;;;;14.58;55.69;100658.59;10279611;28;20125;-62
2022/05/08 05:01:49;;;;;;;9.57;8.55;;;;;;;15.46;53.27;100663.22;10263913;28;20550;-63
2022/05/08 05:06:51;;;;;;;11.90;8.40;;;;;;;15.96;51.82;100665.84;10264418;28;20053;-62
2022/05/08 05:11:53;;;;;;;12.02;10.38;;;;;;;15.38;51.98;100673.44;10301931;28;20659;-62
2022/05/08 05:16:55;;;;;;;11.80;10.45;;;;;;;14.76;53.44;100676.78;10283135;28;20661;-62
2022/05/08 05:21:56;;;;;;;11.20;10.10;;;;;;;14.45;54.52;100676.06;10264344;28;20138;-62
2022/05/08 05:26:59;;;;;;;13.38;9.48;;;;;;;14.54;54.61;100686.06;10263857;28;20698;-62
2022/05/08 05:32:01;;;;;;;11.48;10.02;;;;;;;14.61;54.57;100690.91;10264208;28;20132;-62
2022/05/08 05:37:03;;;;;;;13.07;11.20;;;;;;;14.63;54.43;100689.88;10266581;28;20621;-62
2022/05/08 05:42:05;;;;;;;13.77;11.13;;;;;;;14.76;54.29;100693.41;10264718;28;20054;-62
2022/05/08 05:52:27;;;;;;;13.02;10.23;;;;;;;14.97;53.92;100699.06;10263735;28;20141;-62
2022/05/08 05:57:29;;;;;;;11.73;10.40;;;;;;;15.10;53.77;100702.59;10263298;28;20047;-61
2022/05/08 06:02:31;;;;;;;10.45;9.02;;;;;;;15.15;54.26;100697.84;10263429;28;20089;-62
2022/05/08 06:07:34;;;;;;;10.80;9.70;;;;;;;15.35;53.59;100698.19;10284246;28;20441;-62
2022/05/08 06:12:36;;;;;;;12.75;9.73;;;;;;;15.35;53.98;100705.25;10263077;28;20499;-62
2022/05/08 06:17:38;;;;;;;11.98;10.55;;;;;;;15.39;53.66;100701.47;10262558;28;20090;-62
2022/05/08 06:22:40;;;;;;;12.02;10.52;;;;;;;15.66;54.05;100707.53;10263707;28;20109;-62
2022/05/08 06:27:42;;;;;;;13.82;10.45;;;;;;;15.97;53.15;100707.13;10262261;28;20419;-62
2022/05/08 06:32:43;;;;;;;11.05;9.57;;;;;;;16.40;52.11;100706.72;10266274;28;20058;-62
2022/05/08 06:38:11;;;;;;;12.90;10.73;;;;;;;16.64;51.40;100711.13;10269889;28;20054;-62
2022/05/08 06:43:13;;;;;;;13.52;11.02;;;;;;;16.62;51.04;100704.25;10270990;28;20079;-62
2022/05/08 06:48:14;;;;;;;12.05;10.07;;;;;;;16.82;50.89;100704.50;10270430;28;20483;-62
2022/05/08 06:53:16;;;;;;;12.32;10.52;;;;;;;17.00;50.15;100704.91;10268926;28;20141;-62
2022/05/08 06:58:20;;;;;;;13.07;10.38;;;;;;;16.93;50.29;100703.72;10270283;28;20133;-62
2022/05/08 07:03:22;;;;;;;12.55;10.23;;;;;;;17.06;50.09;100703.66;10268413;28;20137;-62
2022/05/08 07:08:23;;;;;;;15.45;10.13;;;;;;;17.23;49.86;100698.78;10269427;28;20094;-62
2022/05/08 07:13:26;;;;;;;12.40;10.55;;;;;;;17.36;49.32;100704.88;10269248;28;20113;-62
2022/05/08 07:18:29;;;;;;;16.00;11.40;;;;;;;17.38;49.73;100712.69;10269966;28;20782;-62
2022/05/08 07:23:32;;;;;;;14.63;11.07;;;;;;;17.10;49.55;100708.56;10268289;28;20518;-62
2022/05/08 07:28:33;;;;;;;15.20;10.63;;;;;;;17.19;49.85;100710.53;10261383;28;20058;-68
2022/05/08 07:33:36;;;;;;;14.90;11.13;;;;;;;18.19;48.60;100710.72;10256158;28;20555;-68
2022/05/08 07:38:43;;;;;;;15.57;9.88;;;;;;;19.67;45.74;100703.75;10257840;28;20430;-68
2022/05/08 07:43:45;;;;;;;12.65;10.68;;;;;;;20.52;44.17;100700.63;10265202;28;20082;-68
2022/05/08 07:48:47;;;;;;;13.00;10.25;;;;;;;21.33;42.30;100704.81;10265555;28;20089;-68
2022/05/08 07:53:49;;;;;;;12.98;9.23;;;;;;;21.29;41.78;100703.41;10266149;28;20054;-68
2022/05/08 07:58:51;;;;;;;14.25;8.70;;;;;;;22.11;40.31;100696.53;10264821;28;20113;-68
2022/05/08 08:03:52;;;;;;;12.20;9.20;;;;;;;21.81;39.94;100700.25;10266529;28;20550;-67
2022/05/08 08:08:56;;;;;;;12.27;8.82;;;;;;;21.40;40.83;100711.25;10263645;28;20322;-68
2022/05/08 08:14:04;;;;;;;12.38;8.75;;;;;;;21.61;39.99;100714.59;10266795;28;20109;-67
2022/05/08 08:19:06;;;;;;;12.90;8.85;;;;;;;21.68;40.00;100710.38;10263482;28;20241;-67
2022/05/08 08:24:08;;;;;;;11.90;9.10;;;;;;;21.61;39.70;100720.75;10259914;28;20061;-68
2022/05/08 08:29:09;;;;;;;12.10;7.90;;;;;;;21.62;40.56;100721.59;10264687;28;20051;-68
2022/05/08 08:34:11;;;;;;;11.02;7.40;;;;;;;21.76;40.18;100711.31;10264753;28;20072;-67
2022/05/08 08:39:13;;;;;;;12.65;6.72;;;;;;;22.02;39.69;100718.69;10264169;28;20133;-68
2022/05/08 08:49:42;;;;;;;8.70;6.47;;;;;;;22.96;37.89;100711.22;10265142;28;20499;-68
2022/05/08 08:54:44;;;;;;;8.73;6.28;;;;;;;22.90;38.63;100714.47;10261986;28;20137;-68
2022/05/08 08:59:46;;;;;;;9.25;6.05;;;;;;;22.90;37.48;100717.16;10266092;28;20411;-67
2022/05/08 09:04:49;;;;;;;8.88;5.47;;;;;;;23.02;37.73;100707.94;10263926;28;20133;-69
2022/05/08 09:10:08;;;;;;;8.02;6.13;;;;;;;23.30;37.25;100714.84;10281839;28;20055;-68
2022/05/08 09:15:35;;;;;;;9.02;6.30;;;;;;;23.40;35.86;100718.28;10259938;28;20061;-67
2022/05/08 09:20:36;;;;;;;8.50;6.13;;;;;;;23.13;37.54;100709.50;10251177;28;20602;-68
2022/05/08 09:25:49;;;;;;;8.25;5.65;;;;;;;22.65;37.20;100712.50;10254520;28;20193;-68
2022/05/08 09:31:07;;;;;;;9.43;6.07;;;;;;;22.53;37.67;100708.38;10259836;28;20058;-68
2022/05/08 09:36:18;;;;;;;8.80;5.78;;;;;;;22.77;36.96;100705.16;10255449;28;20069;-68
2022/05/08 09:41:28;;;;;;;9.88;5.75;;;;;;;23.10;37.19;100704.50;10249754;28;20895;-68
2022/05/08 09:46:35;;;;;;;9.40;5.40;;;;;;;23.00;36.83;100704.56;10246865;28;20176;-67
2022/05/08 09:51:40;;;;;;;7.03;4.85;;;;;;;23.17;36.00;100700.19;10253786;28;20051;-67
2022/05/08 09:56:44;;;;;;;7.70;5.10;;;;;;;22.85;37.01;100689.22;10255791;28;20254;-67
2022/05/08 10:01:47;;;;;;;8.00;5.40;;;;;;;22.76;36.82;100685.63;10258834;28;20448;-66
2022/05/08 10:06:51;;;;;;;7.63;5.18;;;;;;;22.34;37.60;100693.31;10255891;28;20515;-66
2022/05/08 10:17:14;;;;;;;8.65;4.97;;;;;;;23.38;36.43;100679.34;10258175;28;20138;-67
2022/05/08 10:22:16;;;;;;;6.18;4.25;;;;;;;23.36;36.55;100676.84;10262163;28;20078;-67
2022/05/08 10:27:19;;;;;;;8.57;4.82;;;;;;;23.35;36.74;100671.69;10283218;28;20057;-67
2022/05/08 10:32:32;;;;;;;6.05;3.85;;;;;;;23.72;35.80;100668.75;10258585;28;20316;-67
2022/05/08 10:37:36;;;;;;;7.13;3.72;;;;;;;24.17;36.88;100667.53;10256187;28;20723;-67
2022/05/08 10:42:45;;;;;;;5.50;3.53;;;;;;;24.18;35.02;100669.19;10274611;28;20499;-68
2022/05/08 10:47:49;;;;;;;7.25;4.20;;;;;;;23.68;34.72;100662.91;10261085;28;20050;-67
2022/05/08 10:52:51;;;;;;;8.95;4.60;;;;;;;23.88;35.48;100656.34;10254972;28;20718;-66
2022/05/08 10:57:58;;;;;;;6.80;3.78;;;;;;;23.34;35.66;100641.47;10259154;28;20055;-67
2022/05/08 11:03:01;;;;;;;7.82;3.70;;;;;;;22.99;36.17;100656.69;10258215;28;20518;-67
2022/05/08 11:08:08;;;;;;;8.32;4.28;;;;;;;22.74;35.87;100657.47;10257916;28;20054;-67
2022/05/08 11:13:18;;;;;;;6.45;4.15;;;;;;;22.78;37.22;100661.50;10257293;28;20639;-68
2022/05/08 11:18:26;;;;;;;7.78;3.90;;;;;;;22.86;36.88;100643.72;10258035;28;20551;-68
2022/05/08 11:23:29;;;;;;;7.65;4.25;;;;;;;22.68;36.93;100649.03;10267131;28;20046;-68
2022/05/08 11:28:31;;;;;;;7.13;3.88;;;;;;;22.34;36.61;100647.16;10267200;28;20204;-68
2022/05/08 11:39:00;;;;;;;5.72;3.60;;;;;;;22.54;36.38;100633.56;10267579;28;20507;-67
2022/05/08 11:44:16;;;;;;;7.50;3.80;;;;;;;22.93;37.79;100635.97;10280978;28;20575;-68
2022/05/08 11:49:26;;;;;;;6.22;3.60;;;;;;;23.55;35.94;100632.28;10272018;28;20467;-68
2022/05/08 11:54:34;;;;;;;5.47;3.00;;;;;;;23.42;35.10;100632.69;10265362;28;20058;-68
2022/05/08 11:59:36;;;;;;;7.57;3.17;;;;;;;22.61;36.28;100620.47;10296142;28;20046;-68
2022/05/08 12:04:39;;;;;;;6.07;3.38;;;;;;;22.84;36.75;100628.88;10269707;28;20411;-68
2022/05/08 12:09:49;;;;;;;6.30;3.65;;;;;;;22.91;35.35;100629.94;10264975;28;20160;-68
2022/05/08 12:14:53;;;;;;;8.50;4.13;;;;;;;23.47;34.08;100619.72;10263474;28;20055;-68
2022/05/08 12:19:57;;;;;;;7.82;3.25;;;;;;;23.63;34.57;100602.97;10260063;28;20133;-68
2022/05/08 12:24:59;;;;;;;5.22;3.20;;;;;;;23.66;34.91;100606.13;10262441;28;20181;-68
2022/05/08 12:30:05;;;;;;;8.25;3.63;;;;;;;23.19;35.38;100607.47;10261078;28;20050;-68
2022/05/08 12:35:12;;;;;;;7.00;2.95;;;;;;;23.33;35.42;100609.59;10261715;28;20042;-68
2022/05/08 12:40:15;;;;;;;7.53;3.35;;;;;;;22.98;35.00;100609.66;10262869;28;20139;-67
2022/05/08 12:45:16;;;;;;;8.02;3.00;;;;;;;22.24;37.01;100615.25;10255821;28;20137;-67
2022/05/08 12:50:18;;;;;;;9.43;3.25;;;;;;;21.88;38.11;100621.47;10260080;28;20499;-67
2022/05/08 12:55:20;;;;;;;6.78;3.40;;;;;;;21.52;38.22;100635.59;10261590;28;20645;-67
2022/05/08 13:00:22;;;;;;;6.35;3.53;;;;;;;20.84;39.23;100634.84;10263947;28;20816;-67
2022/05/08 13:05:24;;;;;;;6.55;3.40;;;;;;;20.61;39.83;100635.22;10262493;28;20086;-66
2022/05/08 13:10:27;;;;;;;7.55;3.40;;;;;;;20.53;40.39;100641.22;10263018;28;20401;-67
2022/05/08 13:15:33;;;;;;;7.47;3.60;;;;;;;20.09;41.18;100633.72;10262957;28;20468;-67
2022/05/08 13:20:35;;;;;;;7.50;3.60;;;;;;;19.98;41.69;100639.97;10282484;28;20042;-67
2022/05/08 13:25:38;;;;;;;7.13;4.10;;;;;;;19.96;42.16;100647.22;10261941;28;20162;-68
2022/05/08 13:30:39;;;;;;;7.22;4.10;;;;;;;20.04;42.50;100633.25;10263289;28;20145;-68
2022/05/08 13:35:41;;;;;;;7.35;3.97;;;;;;;19.99;42.01;100635.50;10263269;28;20387;-67
2022/05/08 13:40:43;;;;;;;6.95;3.70;;;;;;;20.01;41.85;100625.56;10263899;28;20050;-67
2022/05/08 13:45:45;;;;;;;4.97;3.50;;;;;;;19.92;42.77;100624.56;10262029;28;20074;-67
2022/05/08 13:50:49;;;;;;;6.40;3.70;;;;;;;20.22;42.48;100621.00;10260884;28;20110;-67
2022/05/08 13:55:54;;;;;;;7.43;3.63;;;;;;;20.32;42.59;100621.84;10263579;28;20059;-67
2022/05/08 14:00:57;;;;;;;5.65;3.53;;;;;;;20.54;42.53;100610.16;10261492;28;20068;-67
2022/05/08 14:06:00;;;;;;;7.10;3.65;;;;;;;20.73;42.05;100604.88;10262744;28;20059;-67
2022/05/08 14:11:02;;;;;;;7.95;3.70;;;;;;;20.75;41.81;100609.06;10262438;28;20086;-68
2022/05/08 14:16:04;;;;;;;8.32;3.58;;;;;;;20.90;41.69;100607.69;10262982;28;20063;-67
2022/05/08 14:21:06;;;;;;;6.88;3.20;;;;;;;20.82;41.82;100609.34;10262295;28;20426;-67
2022/05/08 14:26:12;;;;;;;6.20;3.63;;;;;;;20.86;42.03;100610.75;10262951;28;20070;-68
2022/05/08 14:36:35;;;;;;;6.43;3.17;;;;;;;21.02;41.82;100603.03;10262041;28;20581;-67
2022/05/08 14:41:37;;;;;;;7.28;3.30;;;;;;;21.10;41.09;100600.50;10262704;28;20097;-67
2022/05/08 14:46:39;;;;;;;7.78;3.58;;;;;;;21.23;42.85;100598.41;10262118;28;20587;-67
2022/05/08 14:51:40;;;;;;;7.88;3.55;;;;;;;21.34;43.28;100590.25;10258504;28;20074;-67
2022/05/08 14:56:43;;;;;;;4.90;3.33;;;;;;;21.39;43.46;100585.34;10270237;28;20082;-67
2022/05/08 15:01:45;;;;;;;8.02;3.50;;;;;;;21.50;43.49;100584.31;10269276;28;20051;-67
2022/05/08 15:06:48;;;;;;;5.47;3.00;;;;;;;21.55;43.31;100582.06;10268655;28;20145;-67
2022/05/08 15:11:52;;;;;;;5.70;3.25;;;;;;;21.61;44.09;100587.66;10268742;28;20058;-67
2022/05/08 15:16:54;;;;;;;7.68;2.92;;;;;;;21.75;44.76;100581.84;10269793;28;20083;-67
2022/05/08 15:21:56;;;;;;;5.85;3.20;;;;;;;21.75;45.00;100583.66;10292834;28;20050;-67
2022/05/08 15:26:58;;;;;;;5.65;3.30;;;;;;;21.66;44.70;100574.72;10308718;28;20066;-67
2022/05/08 15:32:00;;;;;;;8.90;3.55;;;;;;;21.63;44.71;100577.69;10275856;28;20515;-67
2022/05/08 15:37:06;;;;;;;5.07;3.25;;;;;;;21.70;42.54;100580.63;10266246;28;20113;-67
2022/05/08 15:42:09;;;;;;;7.25;3.33;;;;;;;21.90;41.41;100572.38;10272929;28;20061;-67
2022/05/08 15:47:11;;;;;;;7.47;3.10;;;;;;;22.09;40.60;100570.63;10268197;28;20464;-68
2022/05/08 15:52:13;;;;;;;9.35;3.20;;;;;;;22.59;38.84;100564.66;10265256;28;20059;-68
2022/05/08 15:57:14;;;;;;;6.70;2.95;;;;;;;22.66;38.28;100557.69;10268393;28;20058;-67
2022/05/08 16:02:16;;;;;;;7.43;3.08;;;;;;;22.86;37.95;100561.03;10266744;28;20065;-67
2022/05/08 16:07:19;;;;;;;5.80;3.33;;;;;;;23.12;35.54;100558.41;10266071;28;20387;-68
2022/05/08 16:12:21;;;;;;;6.63;3.00;;;;;;;22.92;35.87;100559.59;10264860;28;20402;-67
2022/05/08 16:28:04;;;;;;;6.40;2.80;;;;;;;21.78;38.06;100570.06;10265765;28;20059;-68
2022/05/08 16:33:06;;;;;;;6.05;2.85;;;;;;;21.43;38.49;100569.94;10266513;28;20118;-68
2022/05/08 16:38:07;;;;;;;5.20;2.88;;;;;;;21.13;38.56;100570.13;10260084;28;20149;-67
2022/05/08 16:43:10;;;;;;;6.40;3.03;;;;;;;20.84;38.87;100568.38;10261994;28;21105;-68
2022/05/08 16:48:12;;;;;;;5.80;2.72;;;;;;;20.79;39.20;100559.13;10272775;28;20051;-67
2022/05/08 16:53:15;;;;;;;4.72;2.63;;;;;;;20.71;39.54;100569.63;10245646;28;20778;-68
2022/05/08 16:58:18;;;;;;;6.35;2.88;;;;;;;20.55;39.92;100570.16;10254317;28;20080;-68
2022/05/08 17:03:20;;;;;;;5.43;2.60;;;;;;;20.44;40.15;100570.28;10252433;28;20055;-68
2022/05/08 17:08:22;;;;;;;6.03;2.92;;;;;;;20.32;40.73;100573.19;10257114;28;20058;-68
2022/05/08 17:13:23;;;;;;;8.02;3.80;;;;;;;20.25;41.06;100568.44;10253754;28;20051;-68
2022/05/08 17:18:25;;;;;;;5.55;2.95;;;;;;;20.09;40.74;100572.63;10258172;28;20354;-68
2022/05/08 17:23:35;;;;;;;8.63;2.70;;;;;;;20.02;40.60;100567.03;10257893;28;20051;-68
2022/05/08 17:28:46;;;;;;;8.07;2.60;;;;;;;19.97;40.87;100571.88;10256981;28;20086;-68
2022/05/08 17:33:49;;;;;;;5.15;3.00;;;;;;;19.95;41.61;100578.31;10259438;28;20070;-68
2022/05/08 17:38:51;;;;;;;6.45;2.65;;;;;;;19.84;41.77;100581.06;10257287;28;20047;-68
2022/05/08 17:43:53;;;;;;;6.93;3.17;;;;;;;19.62;41.97;100573.28;10252133;28;20057;-68
2022/05/08 17:48:55;;;;;;;6.03;3.10;;;;;;;19.46;42.51;100579.91;10276533;28;20051;-66
2022/05/08 17:53:56;;;;;;;7.93;3.15;;;;;;;19.31;42.78;100577.75;10251800;28;20057;-67
2022/05/08 17:58:58;;;;;;;5.90;3.00;;;;;;;19.27;43.38;100577.19;10257265;28;20097;-67
2022/05/08 18:09:20;;;;;;;7.72;3.55;;;;;;;19.11;44.21;100591.88;10256847;28;20095;-68
2022/05/08 18:14:22;;;;;;;12.60;3.97;;;;;;;18.97;44.87;100592.16;10256422;28;20102;-67
2022/05/08 18:19:23;;;;;;;6.25;3.20;;;;;;;18.86;44.58;100593.06;10256826;28;20090;-68
2022/05/08 18:24:25;;;;;;;7.60;3.38;;;;;;;18.72;45.34;100609.25;10260685;28;20050;-68
2022/05/08 18:29:27;;;;;;;8.60;3.50;;;;;;;18.58;45.72;100613.03;10263338;28;20134;-68
2022/05/08 18:34:29;;;;;;;9.45;3.40;;;;;;;18.43;46.45;100614.31;10267436;28;20137;-68
2022/05/08 18:39:30;;;;;;;5.28;3.53;;;;;;;18.22;47.94;100621.31;10272225;28;20566;-62
2022/05/08 18:44:32;;;;;;;7.57;3.40;;;;;;;18.12;48.67;100630.09;10265739;28;20578;-63
2022/05/08 18:49:34;;;;;;;5.82;3.35;;;;;;;17.91;49.43;100635.31;10272248;28;20178;-62
2022/05/08 18:54:36;;;;;;;6.35;3.60;;;;;;;17.65;50.15;100641.78;10261050;28;20557;-62
2022/05/08 18:59:38;;;;;;;6.68;3.58;;;;;;;17.45;50.00;100643.31;10262786;28;20482;-62
2022/05/08 19:04:40;;;;;;;11.10;3.92;;;;;;;17.26;51.14;100655.41;10268145;28;20082;-61
2022/05/08 19:09:41;;;;;;;7.47;4.35;;;;;;;17.16;51.33;100663.16;10268069;28;20221;-62
2022/05/08 19:14:43;;;;;;;7.00;4.53;;;;;;;17.02;51.83;100673.94;10276183;28;21085;-62
2022/05/08 19:19:45;;;;;;;8.95;4.43;;;;;;;16.85;51.93;100680.47;10287658;28;20053;-62
2022/05/08 19:24:50;;;;;;;8.45;4.50;;;;;;;16.55;52.50;100682.72;10271693;28;20054;-62
2022/05/08 19:29:52;;;;;;;7.75;4.40;;;;;;;16.22;53.28;100693.88;10269362;28;20051;-62
2022/05/08 19:40:14;;;;;;;6.60;5.07;;;;;;;15.93;53.81;100710.91;10266544;28;20043;-62
2022/05/08 19:45:16;;;;;;;7.60;4.80;;;;;;;15.81;54.34;100717.06;10264828;28;20117;-62
2022/05/08 19:50:19;;;;;;;7.53;4.93;;;;;;;15.79;53.98;100721.59;10271337;28;20524;-63
2022/05/08 19:55:21;;;;;;;8.70;5.50;;;;;;;15.81;54.12;100730.25;10296258;28;20057;-62
2022/05/08 20:00:24;;;;;;;10.05;6.22;;;;;;;15.69;54.73;100740.78;10268222;28;20046;-62
2022/05/08 20:05:25;;;;;;;9.18;6.10;;;;;;;15.55;55.31;100741.69;10267919;28;20126;-62
2022/05/08 20:10:28;;;;;;;7.93;4.38;;;;;;;15.51;54.84;100748.13;10268328;28;20058;-63
2022/05/08 20:15:30;;;;;;;9.40;6.18;;;;;;;15.41;55.53;100761.03;10289364;28;20073;-62
2022/05/08 20:26:09;;;;;;;8.68;5.32;;;;;;;15.23;55.60;100766.69;10221250;28;20050;-62
2022/05/08 20:31:11;;;;;;;10.13;5.25;;;;;;;15.07;55.67;100769.50;10265014;28;20078;-62
2022/05/08 20:36:13;;;;;;;9.20;4.80;;;;;;;14.80;56.30;100780.97;10262087;28;20318;-62
2022/05/08 20:41:17;;;;;;;6.70;4.30;;;;;;;14.74;56.29;100776.06;10263380;28;20134;-61
2022/05/08 20:46:18;;;;;;;8.23;4.68;;;;;;;14.52;56.68;100793.22;10264886;28;20122;-61
2022/05/08 20:51:20;;;;;;;9.93;4.07;;;;;;;14.48;56.40;100796.97;10263156;28;20467;-62
2022/05/08 20:56:22;;;;;;;6.30;3.85;;;;;;;14.41;55.13;100795.63;10263494;28;20065;-61
2022/05/08 21:01:24;;;;;;;7.93;3.30;;;;;;;14.31;54.97;100802.41;10264030;28;20093;-61
2022/05/08 21:11:47;;;;;;;5.78;3.25;;;;;;;14.24;54.57;100806.38;10264244;28;20112;-61
2022/05/08 21:16:49;;;;;;;6.32;3.15;;;;;;;14.28;53.96;100805.25;10268288;28;20145;-61
2022/05/08 21:21:51;;;;;;;7.65;2.95;;;;;;;14.21;53.54;100808.31;10261090;28;20053;-63
2022/05/08 21:26:53;;;;;;;7.35;3.13;;;;;;;14.16;53.33;100818.28;10261916;28;20631;-62
2022/05/08 21:31:58;;;;;;;6.47;3.30;;;;;;;14.11;53.36;100817.69;10267426;28;20105;-62
2022/05/08 21:37:00;;;;;;;7.70;3.55;;;;;;;14.11;53.28;100817.69;10262255;28;20090;-62
2022/05/08 21:42:03;;;;;;;8.23;3.50;;;;;;;14.05;53.77;100816.28;10262364;28;20493;-63
2022/05/08 21:47:04;;;;;;;14.13;3.92;;;;;;;13.94;53.90;100825.78;10261882;28;20475;-62
2022/05/08 21:52:07;;;;;;;7.05;3.58;;;;;;;13.85;53.97;100829.78;10262980;28;20054;-63
2022/05/08 21:57:09;;;;;;;8.85;4.55;;;;;;;13.72;55.06;100828.81;10260792;28;20494;-63
2022/05/08 22:02:11;;;;;;;9.23;4.35;;;;;;;13.58;55.87;100836.66;10262783;28;20061;-62
2022/05/08 22:07:13;;;;;;;10.10;5.03;;;;;;;13.52;56.43;100831.75;10262105;28;20665;-61
2022/05/08 22:12:15;;;;;;;9.63;4.43;;;;;;;13.44;56.86;100837.44;10262459;28;20082;-61
2022/05/08 22:17:17;;;;;;;8.13;4.80;;;;;;;13.40;57.41;100832.41;10261925;28;20165;-62
2022/05/08 22:22:19;;;;;;;7.00;4.25;;;;;;;13.25;57.05;100833.31;10261805;28;20050;-62
2022/05/08 22:27:20;;;;;;;7.63;4.10;;;;;;;13.04;57.33;100840.59;10262329;28;20187;-61
2022/05/08 22:32:22;;;;;;;9.23;4.32;;;;;;;12.79;57.21;100832.38;10262679;28;20055;-62
2022/05/08 22:37:24;;;;;;;7.25;4.03;;;;;;;12.54;57.63;100838.09;10262512;28;20085;-61
2022/05/08 22:42:26;;;;;;;8.68;3.55;;;;;;;12.56;57.60;100836.22;10261604;28;20141;-61
2022/05/08 22:47:27;;;;;;;6.38;3.75;;;;;;;12.55;57.85;100839.81;10261074;28;20186;-61
2022/05/08 22:52:29;;;;;;;8.57;3.67;;;;;;;12.63;57.75;100839.38;10259900;28;20491;-61
2022/05/08 22:57:31;;;;;;;6.60;3.63;;;;;;;12.62;57.63;100848.19;10260255;28;20070;-62
2022/05/08 23:02:33;;;;;;;6.63;3.63;;;;;;;12.27;58.08;100852.66;10261052;28;20581;-61
2022/05/08 23:07:34;;;;;;;10.48;4.30;;;;;;;12.25;58.58;100857.13;10260188;28;20047;-61
2022/05/08 23:12:40;;;;;;;6.55;4.30;;;;;;;12.26;58.95;100853.56;10274740;28;20562;-61
2022/05/08 23:17:42;;;;;;;6.10;3.78;;;;;;;12.25;59.00;100851.03;10267748;28;20488;-62
2022/05/08 23:22:46;;;;;;;8.15;4.18;;;;;;;12.33;59.24;100847.13;10267369;28;20058;-62
2022/05/08 23:27:48;;;;;;;7.53;3.60;;;;;;;12.29;58.43;100845.59;10277924;28;20121;-61
2022/05/08 23:32:53;;;;;;;7.07;3.92;;;;;;;12.26;57.91;100845.69;10267934;28;20050;-61
2022/05/08 23:37:56;;;;;;;8.75;4.35;;;;;;;11.88;58.71;100846.81;10267363;28;20050;-61
2022/05/08 23:42:58;;;;;;;7.30;3.83;;;;;;;11.68;59.33;100849.59;10266250;28;20054;-62
2022/05/08 23:48:00;;;;;;;6.65;3.80;;;;;;;11.67;59.72;100851.34;10265606;28;20636;-62
2022/05/08 23:53:02;;;;;;;6.07;3.97;;;;;;;11.57;59.47;100852.75;10267262;28;20107;-61
2022/05/08 23:58:04;;;;;;;8.57;3.85;;;;;;;11.37;60.06;100850.25;10266638;28;20137;-62
